sensor_id;sensor_type;location;lat;lon;timestamp;P1;durP1;ratioP1;P2;durP2;ratioP2
76348;SDS011;65172;46.764;15.406;2023-02-15T00:01:14;43.03;;;22.55;;
76348;SDS011;65172;46.764;15.406;2023-02-15T00:03:39;51.78;;;25.15;;
76348;SDS011;65172;46.764;15.406;2023-02-15T00:06:05;47.60;;;26.27;;
76348;SDS011;65172;46.764;15.406;2023-02-15T00:08:31;47.25;;;25.45;;
76348;SDS011;65172;46.764;15.406;2023-02-15T00:11:30;48.22;;;25.50;;
76348;SDS011;65172;46.764;15.406;2023-02-15T00:14:10;50.83;;;25.50;;
76348;SDS011;65172;46.764;15.406;2023-02-15T00:16:40;51.88;;;25.77;;
76348;SDS011;65172;46.764;15.406;2023-02-15T00:19:07;58.42;;;27.95;;
76348;SDS011;65172;46.764;15.406;2023-02-15T00:21:33;57.85;;;29.17;;
76348;SDS011;65172;46.764;15.406;2023-02-15T00:24:00;56.72;;;27.52;;
76348;SDS011;65172;46.764;15.406;2023-02-15T00:26:27;54.40;;;29.15;;
76348;SDS011;65172;46.764;15.406;2023-02-15T00:28:52;51.42;;;26.63;;
76348;SDS011;65172;46.764;15.406;2023-02-15T00:31:18;60.47;;;28.15;;
76348;SDS011;65172;46.764;15.406;2023-02-15T00:33:44;52.90;;;27.70;;
76348;SDS011;65172;46.764;15.406;2023-02-15T00:36:10;47.53;;;25.65;;
76348;SDS011;65172;46.764;15.406;2023-02-15T00:38:36;52.03;;;27.33;;
76348;SDS011;65172;46.764;15.406;2023-02-15T00:41:04;61.88;;;28.30;;
76348;SDS011;65172;46.764;15.406;2023-02-15T00:43:31;48.72;;;26.75;;
76348;SDS011;65172;46.764;15.406;2023-02-15T00:45:58;49.55;;;27.60;;
76348;SDS011;65172;46.764;15.406;2023-02-15T00:48:23;51.17;;;27.42;;
76348;SDS011;65172;46.764;15.406;2023-02-15T00:50:51;44.80;;;23.27;;
76348;SDS011;65172;46.764;15.406;2023-02-15T00:53:18;41.67;;;23.33;;
76348;SDS011;65172;46.764;15.406;2023-02-15T00:55:43;43.50;;;22.33;;
76348;SDS011;65172;46.764;15.406;2023-02-15T00:58:09;49.35;;;25.23;;
76348;SDS011;65172;46.764;15.406;2023-02-15T01:00:35;45.95;;;23.67;;
76348;SDS011;65172;46.764;15.406;2023-02-15T01:03:02;42.90;;;22.08;;
76348;SDS011;65172;46.764;15.406;2023-02-15T01:05:27;40.90;;;22.98;;
76348;SDS011;65172;46.764;15.406;2023-02-15T01:07:54;39.58;;;21.75;;
76348;SDS011;65172;46.764;15.406;2023-02-15T01:10:20;38.92;;;22.00;;
76348;SDS011;65172;46.764;15.406;2023-02-15T01:12:46;42.40;;;21.38;;
76348;SDS011;65172;46.764;15.406;2023-02-15T01:15:12;45.60;;;23.70;;
76348;SDS011;65172;46.764;15.406;2023-02-15T01:17:37;43.20;;;22.02;;
76348;SDS011;65172;46.764;15.406;2023-02-15T01:20:03;49.03;;;23.40;;
76348;SDS011;65172;46.764;15.406;2023-02-15T01:22:29;42.30;;;21.30;;
76348;SDS011;65172;46.764;15.406;2023-02-15T01:24:55;46.83;;;24.25;;
76348;SDS011;65172;46.764;15.406;2023-02-15T01:27:20;44.40;;;21.65;;
76348;SDS011;65172;46.764;15.406;2023-02-15T01:29:46;41.75;;;22.58;;
76348;SDS011;65172;46.764;15.406;2023-02-15T01:32:12;40.75;;;21.45;;
76348;SDS011;65172;46.764;15.406;2023-02-15T01:34:38;40.65;;;21.52;;
76348;SDS011;65172;46.764;15.406;2023-02-15T01:37:03;44.17;;;23.45;;
76348;SDS011;65172;46.764;15.406;2023-02-15T01:39:29;45.85;;;25.05;;
76348;SDS011;65172;46.764;15.406;2023-02-15T01:41:54;37.88;;;20.67;;
76348;SDS011;65172;46.764;15.406;2023-02-15T01:47:39;41.28;;;22.90;;
76348;SDS011;65172;46.764;15.406;2023-02-15T01:52:44;46.47;;;23.30;;
76348;SDS011;65172;46.764;15.406;2023-02-15T01:55:24;44.78;;;23.58;;
76348;SDS011;65172;46.764;15.406;2023-02-15T01:57:51;46.45;;;23.67;;
76348;SDS011;65172;46.764;15.406;2023-02-15T02:00:16;39.50;;;21.70;;
76348;SDS011;65172;46.764;15.406;2023-02-15T02:02:43;45.83;;;23.33;;
76348;SDS011;65172;46.764;15.406;2023-02-15T02:05:10;46.92;;;23.25;;
76348;SDS011;65172;46.764;15.406;2023-02-15T02:07:40;49.03;;;23.88;;
76348;SDS011;65172;46.764;15.406;2023-02-15T02:10:08;48.83;;;24.25;;
76348;SDS011;65172;46.764;15.406;2023-02-15T02:12:37;41.17;;;23.35;;
76348;SDS011;65172;46.764;15.406;2023-02-15T02:15:04;44.60;;;24.25;;
76348;SDS011;65172;46.764;15.406;2023-02-15T02:23:05;40.20;;;21.63;;
76348;SDS011;65172;46.764;15.406;2023-02-15T02:42:11;41.17;;;20.23;;
76348;SDS011;65172;46.764;15.406;2023-02-15T02:44:42;39.70;;;19.60;;
76348;SDS011;65172;46.764;15.406;2023-02-15T02:49:52;39.00;;;21.42;;
76348;SDS011;65172;46.764;15.406;2023-02-15T02:55:07;42.80;;;20.52;;
76348;SDS011;65172;46.764;15.406;2023-02-15T02:57:54;44.05;;;21.38;;
76348;SDS011;65172;46.764;15.406;2023-02-15T03:00:23;45.83;;;22.13;;
76348;SDS011;65172;46.764;15.406;2023-02-15T03:02:52;42.92;;;21.98;;
76348;SDS011;65172;46.764;15.406;2023-02-15T03:05:23;43.70;;;22.50;;
76348;SDS011;65172;46.764;15.406;2023-02-15T03:07:51;41.60;;;21.17;;
76348;SDS011;65172;46.764;15.406;2023-02-15T03:10:18;42.45;;;21.52;;
76348;SDS011;65172;46.764;15.406;2023-02-15T03:12:46;45.42;;;22.38;;
76348;SDS011;65172;46.764;15.406;2023-02-15T03:15:17;41.58;;;22.67;;
76348;SDS011;65172;46.764;15.406;2023-02-15T03:17:48;42.90;;;23.02;;
76348;SDS011;65172;46.764;15.406;2023-02-15T03:23:00;55.75;;;27.67;;
76348;SDS011;65172;46.764;15.406;2023-02-15T03:25:36;50.92;;;25.48;;
76348;SDS011;65172;46.764;15.406;2023-02-15T03:28:08;47.55;;;24.55;;
76348;SDS011;65172;46.764;15.406;2023-02-15T03:30:36;46.53;;;23.88;;
76348;SDS011;65172;46.764;15.406;2023-02-15T03:33:03;51.60;;;24.52;;
76348;SDS011;65172;46.764;15.406;2023-02-15T03:35:40;48.70;;;25.92;;
76348;SDS011;65172;46.764;15.406;2023-02-15T03:38:10;49.50;;;25.13;;
76348;SDS011;65172;46.764;15.406;2023-02-15T03:40:38;49.90;;;25.45;;
76348;SDS011;65172;46.764;15.406;2023-02-15T03:43:33;51.08;;;26.67;;
76348;SDS011;65172;46.764;15.406;2023-02-15T03:46:07;44.78;;;23.42;;
76348;SDS011;65172;46.764;15.406;2023-02-15T03:48:41;47.10;;;24.33;;
76348;SDS011;65172;46.764;15.406;2023-02-15T03:51:11;43.15;;;21.65;;
76348;SDS011;65172;46.764;15.406;2023-02-15T03:53:58;50.33;;;24.33;;
76348;SDS011;65172;46.764;15.406;2023-02-15T03:56:33;45.95;;;23.65;;
76348;SDS011;65172;46.764;15.406;2023-02-15T03:58:59;47.25;;;25.55;;
76348;SDS011;65172;46.764;15.406;2023-02-15T04:01:46;49.53;;;23.63;;
76348;SDS011;65172;46.764;15.406;2023-02-15T04:07:04;42.90;;;24.15;;
76348;SDS011;65172;46.764;15.406;2023-02-15T04:09:31;51.38;;;26.83;;
76348;SDS011;65172;46.764;15.406;2023-02-15T04:12:15;45.53;;;23.15;;
76348;SDS011;65172;46.764;15.406;2023-02-15T04:14:40;53.75;;;25.58;;
76348;SDS011;65172;46.764;15.406;2023-02-15T04:17:24;53.35;;;26.10;;
76348;SDS011;65172;46.764;15.406;2023-02-15T04:19:50;40.42;;;22.42;;
76348;SDS011;65172;46.764;15.406;2023-02-15T04:22:34;47.38;;;24.20;;
76348;SDS011;65172;46.764;15.406;2023-02-15T04:27:45;59.25;;;26.00;;
76348;SDS011;65172;46.764;15.406;2023-02-15T04:30:13;54.28;;;25.48;;
76348;SDS011;65172;46.764;15.406;2023-02-15T04:32:40;49.38;;;24.95;;
76348;SDS011;65172;46.764;15.406;2023-02-15T04:35:05;55.13;;;25.23;;
76348;SDS011;65172;46.764;15.406;2023-02-15T04:37:31;44.42;;;23.85;;
76348;SDS011;65172;46.764;15.406;2023-02-15T04:39:57;59.47;;;28.92;;
76348;SDS011;65172;46.764;15.406;2023-02-15T04:42:26;57.90;;;26.90;;
76348;SDS011;65172;46.764;15.406;2023-02-15T04:44:52;52.92;;;25.45;;
76348;SDS011;65172;46.764;15.406;2023-02-15T04:47:18;61.08;;;26.90;;
76348;SDS011;65172;46.764;15.406;2023-02-15T04:49:43;61.42;;;27.75;;
76348;SDS011;65172;46.764;15.406;2023-02-15T04:52:09;70.38;;;30.00;;
76348;SDS011;65172;46.764;15.406;2023-02-15T04:54:35;78.35;;;32.92;;
76348;SDS011;65172;46.764;15.406;2023-02-15T04:57:01;71.75;;;32.05;;
76348;SDS011;65172;46.764;15.406;2023-02-15T04:59:26;77.88;;;33.38;;
76348;SDS011;65172;46.764;15.406;2023-02-15T05:01:52;86.68;;;35.25;;
76348;SDS011;65172;46.764;15.406;2023-02-15T05:04:17;54.10;;;25.52;;
76348;SDS011;65172;46.764;15.406;2023-02-15T05:06:43;55.63;;;25.98;;
76348;SDS011;65172;46.764;15.406;2023-02-15T05:09:11;63.03;;;29.80;;
76348;SDS011;65172;46.764;15.406;2023-02-15T05:11:37;75.90;;;32.35;;
76348;SDS011;65172;46.764;15.406;2023-02-15T05:14:03;57.80;;;27.77;;
76348;SDS011;65172;46.764;15.406;2023-02-15T05:16:29;54.67;;;25.67;;
76348;SDS011;65172;46.764;15.406;2023-02-15T05:18:54;68.88;;;29.52;;
76348;SDS011;65172;46.764;15.406;2023-02-15T05:21:20;65.57;;;29.65;;
76348;SDS011;65172;46.764;15.406;2023-02-15T05:23:45;61.15;;;27.33;;
76348;SDS011;65172;46.764;15.406;2023-02-15T05:26:11;62.55;;;27.83;;
76348;SDS011;65172;46.764;15.406;2023-02-15T05:28:56;68.15;;;30.27;;
76348;SDS011;65172;46.764;15.406;2023-02-15T05:31:22;52.58;;;25.38;;
76348;SDS011;65172;46.764;15.406;2023-02-15T05:33:47;51.20;;;25.17;;
76348;SDS011;65172;46.764;15.406;2023-02-15T05:36:13;57.50;;;26.42;;
76348;SDS011;65172;46.764;15.406;2023-02-15T05:38:39;62.97;;;27.75;;
76348;SDS011;65172;46.764;15.406;2023-02-15T05:41:08;61.08;;;27.80;;
76348;SDS011;65172;46.764;15.406;2023-02-15T05:43:34;48.40;;;23.42;;
76348;SDS011;65172;46.764;15.406;2023-02-15T05:46:00;59.72;;;25.33;;
76348;SDS011;65172;46.764;15.406;2023-02-15T05:48:27;51.15;;;26.02;;
76348;SDS011;65172;46.764;15.406;2023-02-15T05:53:30;63.58;;;28.23;;
76348;SDS011;65172;46.764;15.406;2023-02-15T05:55:57;72.20;;;30.88;;
76348;SDS011;65172;46.764;15.406;2023-02-15T05:58:28;62.65;;;28.75;;
76348;SDS011;65172;46.764;15.406;2023-02-15T06:00:55;52.03;;;27.15;;
76348;SDS011;65172;46.764;15.406;2023-02-15T06:03:21;47.88;;;23.55;;
76348;SDS011;65172;46.764;15.406;2023-02-15T06:05:47;44.15;;;23.92;;
76348;SDS011;65172;46.764;15.406;2023-02-15T06:08:13;44.33;;;23.10;;
76348;SDS011;65172;46.764;15.406;2023-02-15T06:10:39;51.47;;;25.33;;
76348;SDS011;65172;46.764;15.406;2023-02-15T06:13:05;51.25;;;26.00;;
76348;SDS011;65172;46.764;15.406;2023-02-15T06:15:31;57.38;;;26.25;;
76348;SDS011;65172;46.764;15.406;2023-02-15T06:17:57;50.60;;;24.77;;
76348;SDS011;65172;46.764;15.406;2023-02-15T06:20:22;54.45;;;25.65;;
76348;SDS011;65172;46.764;15.406;2023-02-15T06:22:48;56.47;;;25.50;;
76348;SDS011;65172;46.764;15.406;2023-02-15T06:25:14;49.00;;;23.77;;
76348;SDS011;65172;46.764;15.406;2023-02-15T06:27:42;50.28;;;24.13;;
76348;SDS011;65172;46.764;15.406;2023-02-15T06:30:09;55.67;;;24.63;;
76348;SDS011;65172;46.764;15.406;2023-02-15T06:32:35;48.50;;;22.45;;
76348;SDS011;65172;46.764;15.406;2023-02-15T06:35:01;61.42;;;26.80;;
76348;SDS011;65172;46.764;15.406;2023-02-15T06:37:26;62.22;;;28.02;;
76348;SDS011;65172;46.764;15.406;2023-02-15T06:39:52;52.63;;;24.38;;
76348;SDS011;65172;46.764;15.406;2023-02-15T06:42:17;47.22;;;23.60;;
76348;SDS011;65172;46.764;15.406;2023-02-15T06:44:43;67.50;;;27.85;;
76348;SDS011;65172;46.764;15.406;2023-02-15T06:47:09;57.70;;;26.90;;
76348;SDS011;65172;46.764;15.406;2023-02-15T06:49:35;53.65;;;25.52;;
76348;SDS011;65172;46.764;15.406;2023-02-15T06:52:01;60.50;;;26.60;;
76348;SDS011;65172;46.764;15.406;2023-02-15T06:54:27;48.88;;;24.23;;
76348;SDS011;65172;46.764;15.406;2023-02-15T06:56:52;47.72;;;23.52;;
76348;SDS011;65172;46.764;15.406;2023-02-15T06:59:18;50.05;;;23.20;;
76348;SDS011;65172;46.764;15.406;2023-02-15T07:01:43;46.38;;;23.20;;
76348;SDS011;65172;46.764;15.406;2023-02-15T07:04:09;54.50;;;25.30;;
76348;SDS011;65172;46.764;15.406;2023-02-15T07:06:34;43.55;;;21.95;;
76348;SDS011;65172;46.764;15.406;2023-02-15T07:09:01;62.33;;;26.65;;
76348;SDS011;65172;46.764;15.406;2023-02-15T07:11:27;71.10;;;28.55;;
76348;SDS011;65172;46.764;15.406;2023-02-15T07:14:11;58.45;;;25.02;;
76348;SDS011;65172;46.764;15.406;2023-02-15T07:16:37;55.35;;;25.73;;
76348;SDS011;65172;46.764;15.406;2023-02-15T07:19:03;62.67;;;28.83;;
76348;SDS011;65172;46.764;15.406;2023-02-15T07:21:28;52.97;;;23.77;;
76348;SDS011;65172;46.764;15.406;2023-02-15T07:23:55;58.85;;;24.25;;
76348;SDS011;65172;46.764;15.406;2023-02-15T07:26:22;47.47;;;23.55;;
76348;SDS011;65172;46.764;15.406;2023-02-15T07:28:48;55.17;;;25.40;;
76348;SDS011;65172;46.764;15.406;2023-02-15T07:31:14;51.20;;;24.10;;
76348;SDS011;65172;46.764;15.406;2023-02-15T07:33:39;56.42;;;26.30;;
76348;SDS011;65172;46.764;15.406;2023-02-15T07:36:05;67.82;;;31.17;;
76348;SDS011;65172;46.764;15.406;2023-02-15T07:38:32;75.47;;;30.95;;
76348;SDS011;65172;46.764;15.406;2023-02-15T07:40:59;72.35;;;31.30;;
76348;SDS011;65172;46.764;15.406;2023-02-15T07:43:36;70.30;;;29.77;;
76348;SDS011;65172;46.764;15.406;2023-02-15T07:46:03;62.80;;;28.13;;
76348;SDS011;65172;46.764;15.406;2023-02-15T07:48:32;64.47;;;28.88;;
76348;SDS011;65172;46.764;15.406;2023-02-15T07:51:02;69.47;;;28.95;;
76348;SDS011;65172;46.764;15.406;2023-02-15T07:53:28;64.57;;;27.73;;
76348;SDS011;65172;46.764;15.406;2023-02-15T07:55:54;53.33;;;26.00;;
76348;SDS011;65172;46.764;15.406;2023-02-15T07:58:20;66.10;;;27.15;;
76348;SDS011;65172;46.764;15.406;2023-02-15T08:00:46;56.95;;;26.35;;
76348;SDS011;65172;46.764;15.406;2023-02-15T08:03:24;54.78;;;26.13;;
76348;SDS011;65172;46.764;15.406;2023-02-15T08:05:54;60.28;;;27.77;;
76348;SDS011;65172;46.764;15.406;2023-02-15T08:08:21;60.33;;;26.60;;
76348;SDS011;65172;46.764;15.406;2023-02-15T08:11:17;51.25;;;24.58;;
76348;SDS011;65172;46.764;15.406;2023-02-15T08:13:53;65.70;;;28.90;;
76348;SDS011;65172;46.764;15.406;2023-02-15T08:18:56;62.80;;;27.85;;
76348;SDS011;65172;46.764;15.406;2023-02-15T08:21:24;74.65;;;29.58;;
76348;SDS011;65172;46.764;15.406;2023-02-15T08:23:52;69.78;;;28.10;;
76348;SDS011;65172;46.764;15.406;2023-02-15T08:26:17;66.65;;;27.13;;
76348;SDS011;65172;46.764;15.406;2023-02-15T08:28:43;73.20;;;28.80;;
76348;SDS011;65172;46.764;15.406;2023-02-15T08:31:10;65.57;;;28.90;;
76348;SDS011;65172;46.764;15.406;2023-02-15T08:33:37;71.30;;;28.48;;
76348;SDS011;65172;46.764;15.406;2023-02-15T08:36:07;67.32;;;28.58;;
76348;SDS011;65172;46.764;15.406;2023-02-15T08:38:35;69.63;;;30.02;;
76348;SDS011;65172;46.764;15.406;2023-02-15T08:41:17;75.28;;;29.48;;
76348;SDS011;65172;46.764;15.406;2023-02-15T08:43:45;66.85;;;27.58;;
76348;SDS011;65172;46.764;15.406;2023-02-15T08:46:12;72.13;;;29.13;;
76348;SDS011;65172;46.764;15.406;2023-02-15T08:48:38;53.47;;;25.52;;
76348;SDS011;65172;46.764;15.406;2023-02-15T08:51:05;48.60;;;23.15;;
76348;SDS011;65172;46.764;15.406;2023-02-15T08:53:36;68.20;;;30.02;;
76348;SDS011;65172;46.764;15.406;2023-02-15T08:56:05;67.25;;;28.02;;
76348;SDS011;65172;46.764;15.406;2023-02-15T08:58:31;70.05;;;29.05;;
76348;SDS011;65172;46.764;15.406;2023-02-15T09:00:57;80.72;;;30.65;;
76348;SDS011;65172;46.764;15.406;2023-02-15T09:03:23;75.47;;;30.60;;
76348;SDS011;65172;46.764;15.406;2023-02-15T09:05:48;75.18;;;29.38;;
76348;SDS011;65172;46.764;15.406;2023-02-15T09:08:14;74.10;;;30.98;;
76348;SDS011;65172;46.764;15.406;2023-02-15T09:10:40;91.53;;;31.80;;
76348;SDS011;65172;46.764;15.406;2023-02-15T09:13:05;70.55;;;28.25;;
76348;SDS011;65172;46.764;15.406;2023-02-15T09:15:31;69.85;;;28.00;;
76348;SDS011;65172;46.764;15.406;2023-02-15T09:17:56;85.15;;;31.58;;
76348;SDS011;65172;46.764;15.406;2023-02-15T09:20:26;81.15;;;30.95;;
76348;SDS011;65172;46.764;15.406;2023-02-15T09:22:53;67.18;;;28.48;;
76348;SDS011;65172;46.764;15.406;2023-02-15T09:25:19;64.43;;;30.95;;
76348;SDS011;65172;46.764;15.406;2023-02-15T09:27:45;67.07;;;27.73;;
76348;SDS011;65172;46.764;15.406;2023-02-15T09:30:11;70.00;;;28.70;;
76348;SDS011;65172;46.764;15.406;2023-02-15T09:32:37;73.90;;;30.08;;
76348;SDS011;65172;46.764;15.406;2023-02-15T09:35:03;76.75;;;29.58;;
76348;SDS011;65172;46.764;15.406;2023-02-15T09:37:29;80.90;;;29.30;;
76348;SDS011;65172;46.764;15.406;2023-02-15T09:39:56;75.97;;;29.42;;
76348;SDS011;65172;46.764;15.406;2023-02-15T10:04:07;76.97;;;30.63;;
76348;SDS011;65172;46.764;15.406;2023-02-15T10:07:20;79.10;;;29.60;;
76348;SDS011;65172;46.764;15.406;2023-02-15T10:09:58;76.97;;;29.65;;
76348;SDS011;65172;46.764;15.406;2023-02-15T10:17:52;77.40;;;29.02;;
76348;SDS011;65172;46.764;15.406;2023-02-15T10:23:12;81.32;;;29.92;;
76348;SDS011;65172;46.764;15.406;2023-02-15T10:26:25;78.88;;;28.75;;
76348;SDS011;65172;46.764;15.406;2023-02-15T10:37:00;90.28;;;32.85;;
76348;SDS011;65172;46.764;15.406;2023-02-15T10:42:20;74.00;;;28.52;;
76348;SDS011;65172;46.764;15.406;2023-02-15T10:50:22;81.03;;;30.48;;
76348;SDS011;65172;46.764;15.406;2023-02-15T11:06:22;75.38;;;29.52;;
76348;SDS011;65172;46.764;15.406;2023-02-15T11:08:53;76.90;;;29.60;;
76348;SDS011;65172;46.764;15.406;2023-02-15T11:11:22;71.25;;;28.13;;
76348;SDS011;65172;46.764;15.406;2023-02-15T11:13:53;69.07;;;28.10;;
76348;SDS011;65172;46.764;15.406;2023-02-15T11:16:35;72.82;;;29.83;;
76348;SDS011;65172;46.764;15.406;2023-02-15T11:19:10;76.13;;;31.35;;
76348;SDS011;65172;46.764;15.406;2023-02-15T11:21:43;72.25;;;30.48;;
76348;SDS011;65172;46.764;15.406;2023-02-15T11:26:42;79.03;;;30.77;;
76348;SDS011;65172;46.764;15.406;2023-02-15T11:29:34;67.10;;;27.70;;
76348;SDS011;65172;46.764;15.406;2023-02-15T11:32:13;72.15;;;28.65;;
76348;SDS011;65172;46.764;15.406;2023-02-15T11:35:31;87.13;;;29.77;;
76348;SDS011;65172;46.764;15.406;2023-02-15T11:40:35;72.95;;;28.45;;
76348;SDS011;65172;46.764;15.406;2023-02-15T11:43:06;65.88;;;28.23;;
76348;SDS011;65172;46.764;15.406;2023-02-15T11:45:37;70.68;;;28.00;;
76348;SDS011;65172;46.764;15.406;2023-02-15T11:48:10;72.50;;;29.90;;
76348;SDS011;65172;46.764;15.406;2023-02-15T11:53:04;72.07;;;28.02;;
76348;SDS011;65172;46.764;15.406;2023-02-15T11:55:31;69.65;;;28.50;;
76348;SDS011;65172;46.764;15.406;2023-02-15T12:00:58;65.50;;;27.40;;
76348;SDS011;65172;46.764;15.406;2023-02-15T12:03:39;69.55;;;28.40;;
76348;SDS011;65172;46.764;15.406;2023-02-15T12:06:11;64.40;;;28.05;;
76348;SDS011;65172;46.764;15.406;2023-02-15T12:09:04;61.92;;;26.27;;
76348;SDS011;65172;46.764;15.406;2023-02-15T12:11:36;70.83;;;29.90;;
76348;SDS011;65172;46.764;15.406;2023-02-15T12:14:07;64.18;;;27.92;;
76348;SDS011;65172;46.764;15.406;2023-02-15T12:16:39;64.72;;;28.20;;
76348;SDS011;65172;46.764;15.406;2023-02-15T12:19:11;67.38;;;28.70;;
76348;SDS011;65172;46.764;15.406;2023-02-15T12:21:48;85.15;;;34.58;;
76348;SDS011;65172;46.764;15.406;2023-02-15T12:24:34;65.03;;;28.45;;
76348;SDS011;65172;46.764;15.406;2023-02-15T12:27:03;62.17;;;28.45;;
76348;SDS011;65172;46.764;15.406;2023-02-15T12:30:53;65.63;;;28.20;;
76348;SDS011;65172;46.764;15.406;2023-02-15T12:33:13;93.40;;;38.88;;
76348;SDS011;65172;46.764;15.406;2023-02-15T12:35:40;63.20;;;27.88;;
76348;SDS011;65172;46.764;15.406;2023-02-15T12:40:38;66.40;;;29.10;;
76348;SDS011;65172;46.764;15.406;2023-02-15T12:43:08;91.38;;;39.65;;
76348;SDS011;65172;46.764;15.406;2023-02-15T12:45:50;64.57;;;27.83;;
76348;SDS011;65172;46.764;15.406;2023-02-15T12:48:16;65.07;;;28.83;;
76348;SDS011;65172;46.764;15.406;2023-02-15T12:50:50;66.55;;;28.63;;
76348;SDS011;65172;46.764;15.406;2023-02-15T12:53:20;77.88;;;32.42;;
76348;SDS011;65172;46.764;15.406;2023-02-15T12:55:58;67.65;;;30.58;;
76348;SDS011;65172;46.764;15.406;2023-02-15T12:58:28;64.00;;;28.50;;
76348;SDS011;65172;46.764;15.406;2023-02-15T13:01:02;62.80;;;28.35;;
76348;SDS011;65172;46.764;15.406;2023-02-15T13:03:52;68.20;;;31.20;;
76348;SDS011;65172;46.764;15.406;2023-02-15T13:06:26;60.00;;;26.35;;
76348;SDS011;65172;46.764;15.406;2023-02-15T13:08:53;60.58;;;27.77;;
76348;SDS011;65172;46.764;15.406;2023-02-15T13:11:25;69.85;;;33.10;;
76348;SDS011;65172;46.764;15.406;2023-02-15T13:13:56;62.55;;;28.73;;
76348;SDS011;65172;46.764;15.406;2023-02-15T13:16:29;64.00;;;26.67;;
76348;SDS011;65172;46.764;15.406;2023-02-15T13:19:02;59.35;;;27.73;;
76348;SDS011;65172;46.764;15.406;2023-02-15T13:21:34;57.47;;;27.63;;
76348;SDS011;65172;46.764;15.406;2023-02-15T13:24:05;61.57;;;27.67;;
76348;SDS011;65172;46.764;15.406;2023-02-15T13:26:32;55.00;;;26.45;;
76348;SDS011;65172;46.764;15.406;2023-02-15T13:29:01;58.53;;;27.73;;
76348;SDS011;65172;46.764;15.406;2023-02-15T13:31:31;60.75;;;27.90;;
76348;SDS011;65172;46.764;15.406;2023-02-15T13:34:03;57.42;;;27.23;;
76348;SDS011;65172;46.764;15.406;2023-02-15T13:36:49;57.95;;;26.35;;
76348;SDS011;65172;46.764;15.406;2023-02-15T13:39:24;58.95;;;26.55;;
76348;SDS011;65172;46.764;15.406;2023-02-15T13:42:47;52.97;;;25.20;;
76348;SDS011;65172;46.764;15.406;2023-02-15T13:51:15;55.95;;;27.00;;
76348;SDS011;65172;46.764;15.406;2023-02-15T14:04:39;58.60;;;26.67;;
76348;SDS011;65172;46.764;15.406;2023-02-15T14:19:09;63.95;;;27.55;;
76348;SDS011;65172;46.764;15.406;2023-02-15T14:21:41;59.83;;;27.10;;
76348;SDS011;65172;46.764;15.406;2023-02-15T14:29:53;56.83;;;26.23;;
76348;SDS011;65172;46.764;15.406;2023-02-15T14:35:16;62.58;;;28.00;;
76348;SDS011;65172;46.764;15.406;2023-02-15T14:49:11;56.77;;;27.00;;
76348;SDS011;65172;46.764;15.406;2023-02-15T14:56:42;57.67;;;28.30;;
76348;SDS011;65172;46.764;15.406;2023-02-15T14:59:16;56.80;;;28.02;;
76348;SDS011;65172;46.764;15.406;2023-02-15T15:07:22;60.00;;;27.42;;
76348;SDS011;65172;46.764;15.406;2023-02-15T15:15:31;55.58;;;27.50;;
76348;SDS011;65172;46.764;15.406;2023-02-15T15:20:42;57.95;;;26.27;;
76348;SDS011;65172;46.764;15.406;2023-02-15T15:28:57;57.47;;;27.55;;
76348;SDS011;65172;46.764;15.406;2023-02-15T15:34:03;54.20;;;26.25;;
76348;SDS011;65172;46.764;15.406;2023-02-15T15:39:28;57.40;;;26.70;;
76348;SDS011;65172;46.764;15.406;2023-02-15T15:47:32;63.65;;;31.02;;
76348;SDS011;65172;46.764;15.406;2023-02-15T15:50:26;88.05;;;45.45;;
76348;SDS011;65172;46.764;15.406;2023-02-15T15:52:56;59.17;;;28.23;;
76348;SDS011;65172;46.764;15.406;2023-02-15T15:55:24;59.88;;;27.83;;
76348;SDS011;65172;46.764;15.406;2023-02-15T15:58:09;61.47;;;27.95;;
76348;SDS011;65172;46.764;15.406;2023-02-15T16:00:46;55.00;;;27.90;;
76348;SDS011;65172;46.764;15.406;2023-02-15T16:03:21;63.28;;;29.70;;
76348;SDS011;65172;46.764;15.406;2023-02-15T16:05:48;57.25;;;27.17;;
76348;SDS011;65172;46.764;15.406;2023-02-15T16:08:36;59.42;;;29.40;;
76348;SDS011;65172;46.764;15.406;2023-02-15T16:11:22;55.83;;;27.35;;
76348;SDS011;65172;46.764;15.406;2023-02-15T16:13:50;60.83;;;28.35;;
76348;SDS011;65172;46.764;15.406;2023-02-15T16:16:20;58.47;;;26.63;;
76348;SDS011;65172;46.764;15.406;2023-02-15T16:18:47;57.63;;;27.58;;
76348;SDS011;65172;46.764;15.406;2023-02-15T16:21:16;57.33;;;28.92;;
76348;SDS011;65172;46.764;15.406;2023-02-15T16:29:27;62.80;;;29.92;;
76348;SDS011;65172;46.764;15.406;2023-02-15T16:31:57;67.10;;;30.45;;
76348;SDS011;65172;46.764;15.406;2023-02-15T16:34:23;73.53;;;29.95;;
76348;SDS011;65172;46.764;15.406;2023-02-15T16:36:48;66.50;;;30.80;;
76348;SDS011;65172;46.764;15.406;2023-02-15T16:39:19;66.03;;;30.02;;
76348;SDS011;65172;46.764;15.406;2023-02-15T16:41:45;69.13;;;29.45;;
76348;SDS011;65172;46.764;15.406;2023-02-15T16:44:14;67.78;;;30.48;;
76348;SDS011;65172;46.764;15.406;2023-02-15T16:46:43;67.25;;;29.88;;
76348;SDS011;65172;46.764;15.406;2023-02-15T16:49:20;73.90;;;31.77;;
76348;SDS011;65172;46.764;15.406;2023-02-15T16:51:54;71.40;;;32.78;;
76348;SDS011;65172;46.764;15.406;2023-02-15T16:54:23;66.40;;;30.38;;
76348;SDS011;65172;46.764;15.406;2023-02-15T16:56:50;69.32;;;30.88;;
76348;SDS011;65172;46.764;15.406;2023-02-15T16:59:19;76.63;;;32.95;;
76348;SDS011;65172;46.764;15.406;2023-02-15T17:01:52;64.25;;;30.25;;
76348;SDS011;65172;46.764;15.406;2023-02-15T17:06:58;70.70;;;32.05;;
76348;SDS011;65172;46.764;15.406;2023-02-15T17:15:35;68.75;;;31.70;;
76348;SDS011;65172;46.764;15.406;2023-02-15T17:18:06;75.45;;;31.10;;
76348;SDS011;65172;46.764;15.406;2023-02-15T17:20:41;78.75;;;34.25;;
76348;SDS011;65172;46.764;15.406;2023-02-15T17:25:57;87.82;;;37.88;;
76348;SDS011;65172;46.764;15.406;2023-02-15T17:28:25;80.43;;;34.95;;
76348;SDS011;65172;46.764;15.406;2023-02-15T17:30:54;78.43;;;33.15;;
76348;SDS011;65172;46.764;15.406;2023-02-15T17:38:37;75.65;;;31.80;;
76348;SDS011;65172;46.764;15.406;2023-02-15T17:41:04;74.88;;;32.30;;
76348;SDS011;65172;46.764;15.406;2023-02-15T17:43:30;73.63;;;30.50;;
76348;SDS011;65172;46.764;15.406;2023-02-15T17:45:57;94.57;;;40.50;;
76348;SDS011;65172;46.764;15.406;2023-02-15T17:48:34;86.07;;;37.47;;
76348;SDS011;65172;46.764;15.406;2023-02-15T17:51:01;90.45;;;38.70;;
76348;SDS011;65172;46.764;15.406;2023-02-15T17:53:28;85.25;;;35.58;;
76348;SDS011;65172;46.764;15.406;2023-02-15T17:55:56;80.32;;;35.50;;
76348;SDS011;65172;46.764;15.406;2023-02-15T17:58:22;86.18;;;35.60;;
76348;SDS011;65172;46.764;15.406;2023-02-15T18:00:49;84.82;;;34.67;;
76348;SDS011;65172;46.764;15.406;2023-02-15T18:03:45;75.53;;;34.00;;
76348;SDS011;65172;46.764;15.406;2023-02-15T18:06:36;82.68;;;34.83;;
76348;SDS011;65172;46.764;15.406;2023-02-15T18:09:22;85.80;;;35.92;;
76348;SDS011;65172;46.764;15.406;2023-02-15T18:12:21;84.20;;;34.78;;
76348;SDS011;65172;46.764;15.406;2023-02-15T18:14:50;83.13;;;34.05;;